Time;durP1;ratioP1;P1;durP2;ratioP2;P2;SDS_P1;SDS_P2;PMS_P1;PMS_P2;Temp;Humidity;BMP_temperature;BMP_pressure;BME280_temperature;BME280_humidity;BME280_pressure;Samples;Min_cycle;Max_cycle;Signal;HPM_P1;HPM_P2
2023/07/15 00:01:45;;;;;;;5.97;3.38;;;21.60;69.10;;;;;;5063299;28;20051;-72
2023/07/15 00:04:31;;;;;;;4.13;2.60;;;21.60;69.20;;;;;;5046623;28;20033;-73
2023/07/15 00:07:17;;;;;;;8.07;3.08;;;21.60;69.30;;;;;;5067116;28;20072;-73
2023/07/15 00:10:03;;;;;;;4.47;2.90;;;21.60;69.40;;;;;;5051315;28;20033;-73
2023/07/15 00:12:49;;;;;;;4.68;3.47;;;21.60;69.50;;;;;;5038360;28;20040;-74
2023/07/15 00:15:35;;;;;;;5.60;3.00;;;21.60;69.50;;;;;;5050798;28;20048;-73
2023/07/15 00:18:21;;;;;;;4.43;2.88;;;21.60;69.70;;;;;;5050137;28;20045;-73
2023/07/15 00:21:22;;;;;;;6.43;3.50;;;21.60;69.70;;;;;;5035199;28;20021;-72
2023/07/15 00:24:08;;;;;;;6.05;2.38;;;21.70;70.30;;;;;;5051521;28;20115;-72
2023/07/15 00:26:55;;;;;;;4.35;2.30;;;21.70;69.90;;;;;;5053893;28;20036;-73
2023/07/15 00:29:41;;;;;;;4.13;3.00;;;21.70;69.80;;;;;;5065072;28;20029;-73
2023/07/15 00:32:27;;;;;;;5.35;2.78;;;21.70;69.90;;;;;;5046185;28;20029;-72
2023/07/15 00:35:28;;;;;;;3.67;2.78;;;21.80;70.00;;;;;;5052510;28;20040;-72
2023/07/15 00:38:14;;;;;;;7.93;3.10;;;21.80;70.10;;;;;;5042398;28;20111;-72
2023/07/15 00:41:00;;;;;;;5.03;3.35;;;21.80;70.10;;;;;;5027553;28;20033;-72
2023/07/15 00:43:53;;;;;;;5.50;3.15;;;21.80;70.20;;;;;;5051279;28;20043;-72
2023/07/15 00:46:43;;;;;;;4.78;3.20;;;21.80;70.30;;;;;;5048412;28;20033;-72
2023/07/15 00:49:34;;;;;;;4.57;3.03;;;21.80;70.40;;;;;;5059025;28;20029;-72
2023/07/15 00:52:23;;;;;;;6.85;3.42;;;21.70;70.50;;;;;;5060683;28;20398;-72
2023/07/15 00:55:10;;;;;;;5.28;2.95;;;21.70;70.50;;;;;;5060887;28;20095;-73
2023/07/15 00:57:57;;;;;;;4.53;2.88;;;21.80;70.60;;;;;;5060193;28;20477;-72
2023/07/15 01:00:43;;;;;;;4.68;3.38;;;21.70;70.70;;;;;;5067893;28;20405;-72
2023/07/15 01:03:29;;;;;;;4.63;2.92;;;21.70;70.90;;;;;;5056453;28;20024;-73
2023/07/15 01:06:15;;;;;;;4.22;3.00;;;21.70;71.00;;;;;;5056735;28;20036;-72
2023/07/15 01:09:04;;;;;;;6.05;3.50;;;21.70;71.20;;;;;;5058548;28;20115;-72
2023/07/15 01:11:50;;;;;;;4.72;3.30;;;21.60;71.20;;;;;;5069760;28;20028;-72
2023/07/15 01:14:37;;;;;;;4.35;3.08;;;21.60;71.30;;;;;;5048689;28;20115;-72
2023/07/15 01:17:23;;;;;;;6.78;4.07;;;21.60;71.40;;;;;;5048517;28;20033;-72
2023/07/15 01:20:09;;;;;;;6.75;3.20;;;21.60;71.50;;;;;;5049290;28;20037;-72
2023/07/15 01:22:55;;;;;;;3.88;2.80;;;21.50;71.70;;;;;;5051141;28;20063;-70
2023/07/15 01:25:41;;;;;;;8.07;3.00;;;21.50;71.90;;;;;;5059722;28;20032;-71
2023/07/15 01:28:27;;;;;;;3.75;2.72;;;21.50;72.00;;;;;;5056035;28;20068;-70
2023/07/15 01:31:14;;;;;;;3.65;2.53;;;21.40;72.10;;;;;;5049553;28;20039;-70
2023/07/15 01:34:00;;;;;;;4.05;2.55;;;21.30;72.20;;;;;;5043464;28;20033;-70
2023/07/15 01:36:46;;;;;;;4.57;3.03;;;21.30;72.40;;;;;;5048571;28;20454;-69
2023/07/15 01:39:34;;;;;;;3.80;2.85;;;21.30;72.60;;;;;;5059226;28;20553;-70
2023/07/15 01:42:20;;;;;;;5.20;3.33;;;21.20;72.60;;;;;;5054503;28;20040;-69
2023/07/15 01:45:09;;;;;;;7.25;3.47;;;21.20;72.80;;;;;;5048995;28;20036;-69
2023/07/15 01:47:55;;;;;;;6.88;3.55;;;21.20;73.00;;;;;;5050101;28;20049;-70
2023/07/15 01:50:42;;;;;;;8.68;3.28;;;21.20;73.20;;;;;;5044209;28;20039;-69
2023/07/15 01:53:29;;;;;;;5.38;2.72;;;21.10;73.30;;;;;;5039375;28;20025;-69
2023/07/15 01:56:15;;;;;;;5.72;3.33;;;21.10;73.40;;;;;;5034440;28;20029;-69
2023/07/15 01:59:00;;;;;;;5.63;3.30;;;21.10;73.50;;;;;;5049497;28;20048;-69
2023/07/15 02:01:46;;;;;;;4.55;3.17;;;21.00;73.60;;;;;;5049573;28;20564;-69
2023/07/15 02:04:32;;;;;;;7.43;3.50;;;21.00;73.80;;;;;;5039267;28;20067;-70
2023/07/15 02:07:18;;;;;;;4.32;3.00;;;21.00;74.00;;;;;;5048984;28;20033;-69
2023/07/15 02:10:06;;;;;;;4.38;3.33;;;21.00;74.20;;;;;;5048054;28;20025;-69
2023/07/15 02:12:52;;;;;;;4.40;2.75;;;20.90;74.40;;;;;;5050522;28;20033;-69
2023/07/15 02:15:38;;;;;;;7.63;2.95;;;20.90;74.50;;;;;;5050574;28;20058;-69
2023/07/15 02:18:25;;;;;;;5.35;3.10;;;20.90;74.70;;;;;;5049344;28;20049;-69
2023/07/15 02:21:11;;;;;;;4.55;3.22;;;20.80;74.70;;;;;;5051662;28;20371;-70
2023/07/15 02:23:59;;;;;;;3.55;2.70;;;20.80;74.90;;;;;;5059352;28;20120;-69
2023/07/15 02:26:45;;;;;;;4.63;3.13;;;20.80;75.00;;;;;;5049409;28;20036;-69
2023/07/15 02:29:31;;;;;;;5.60;3.03;;;20.70;75.20;;;;;;5048785;28;20073;-70
2023/07/15 02:32:35;;;;;;;7.90;3.28;;;20.70;75.40;;;;;;5051572;28;20033;-69
2023/07/15 02:35:21;;;;;;;5.75;3.38;;;20.70;75.50;;;;;;5039021;28;20037;-69
2023/07/15 02:38:07;;;;;;;5.25;3.33;;;20.60;75.60;;;;;;5045326;28;20057;-69
2023/07/15 02:40:54;;;;;;;3.30;2.60;;;20.60;75.80;;;;;;5066830;28;20037;-69
2023/07/15 02:43:40;;;;;;;4.75;3.17;;;20.60;76.50;;;;;;5051542;28;20572;-69
2023/07/15 02:46:26;;;;;;;4.35;3.13;;;20.60;76.20;;;;;;5052390;28;20387;-69
2023/07/15 02:49:12;;;;;;;6.70;3.25;;;20.60;76.40;;;;;;5041630;28;20187;-69
2023/07/15 02:51:58;;;;;;;5.88;3.47;;;20.60;76.50;;;;;;5057039;28;20033;-70
2023/07/15 02:54:50;;;;;;;6.90;2.95;;;20.50;76.70;;;;;;5048045;28;20040;-70
2023/07/15 02:57:37;;;;;;;7.85;3.92;;;20.50;76.90;;;;;;5073081;28;20032;-67
2023/07/15 03:00:22;;;;;;;5.43;3.30;;;20.50;77.00;;;;;;5049254;28;20040;-79
2023/07/15 03:03:09;;;;;;;5.38;3.22;;;20.40;77.20;;;;;;5052222;28;20048;-72
2023/07/15 03:05:55;;;;;;;5.18;3.15;;;20.50;77.30;;;;;;5052637;28;20060;-60
2023/07/15 03:08:41;;;;;;;5.40;3.13;;;20.50;77.60;;;;;;5052173;28;20040;-48
2023/07/15 03:11:28;;;;;;;5.38;3.00;;;20.60;77.70;;;;;;5051480;28;20037;-54
2023/07/15 03:14:14;;;;;;;4.78;3.17;;;20.70;77.40;;;;;;5051248;28;20413;-54
2023/07/15 03:17:00;;;;;;;6.10;3.05;;;20.70;77.30;;;;;;5061432;28;20033;-68
2023/07/15 03:19:46;;;;;;;6.68;4.63;;;20.80;77.30;;;;;;5056866;28;20508;-69
2023/07/15 03:22:32;;;;;;;4.55;3.20;;;20.70;77.30;;;;;;5051642;28;20029;-69
2023/07/15 03:25:21;;;;;;;4.43;3.00;;;20.70;77.50;;;;;;5053371;28;20044;-68
2023/07/15 03:28:06;;;;;;;4.30;2.92;;;20.60;77.40;;;;;;5052415;28;20029;-62
2023/07/15 03:30:52;;;;;;;4.47;2.92;;;20.60;77.70;;;;;;5051149;28;20044;-68
2023/07/15 03:33:38;;;;;;;5.38;3.50;;;20.50;77.80;;;;;;5051063;28;20025;-67
2023/07/15 03:36:24;;;;;;;6.90;3.75;;;20.50;78.00;;;;;;5051946;28;20099;-70
2023/07/15 03:39:10;;;;;;;4.78;2.88;;;20.50;78.20;;;;;;5053598;28;20040;-69
2023/07/15 03:41:56;;;;;;;7.03;3.75;;;20.50;78.30;;;;;;5066481;28;20043;-70
2023/07/15 03:44:42;;;;;;;5.10;3.72;;;20.40;78.50;;;;;;5053956;28;20089;-69
2023/07/15 03:47:28;;;;;;;4.65;3.55;;;20.50;78.60;;;;;;5055296;28;20037;-71
2023/07/15 03:50:14;;;;;;;7.57;3.35;;;20.40;78.70;;;;;;5065726;28;20763;-70
2023/07/15 03:53:00;;;;;;;6.00;3.72;;;20.40;78.90;;;;;;5049573;28;20421;-71
2023/07/15 03:55:46;;;;;;;5.10;3.90;;;20.40;79.10;;;;;;5063163;28;20158;-70
2023/07/15 03:58:32;;;;;;;6.55;3.90;;;20.40;79.30;;;;;;5063931;28;20055;-69
2023/07/15 04:01:18;;;;;;;5.18;3.53;;;20.40;79.50;;;;;;5054043;28;20048;-69
2023/07/15 04:04:08;;;;;;;5.82;3.75;;;20.30;79.60;;;;;;5055069;28;20040;-70
2023/07/15 04:06:55;;;;;;;7.97;3.90;;;20.30;79.70;;;;;;5052557;28;20033;-70
2023/07/15 04:09:40;;;;;;;7.75;4.07;;;20.30;79.80;;;;;;5051567;28;20459;-70
2023/07/15 04:12:26;;;;;;;7.32;4.38;;;20.30;80.00;;;;;;5050495;28;20434;-70
2023/07/15 04:15:12;;;;;;;4.50;3.08;;;20.30;80.10;;;;;;5050634;28;20517;-71
2023/07/15 04:17:58;;;;;;;4.70;3.78;;;20.40;80.30;;;;;;5062338;28;20812;-70
2023/07/15 04:20:44;;;;;;;8.25;3.83;;;20.40;80.30;;;;;;5063539;28;20485;-70
2023/07/15 04:23:30;;;;;;;6.15;3.60;;;20.40;80.50;;;;;;5037474;28;20036;-71
2023/07/15 04:26:26;;;;;;;6.03;3.88;;;20.40;80.70;;;;;;5054063;28;20386;-69
2023/07/15 04:29:12;;;;;;;5.88;4.00;;;20.50;80.90;;;;;;5052974;28;20029;-69
2023/07/15 04:31:58;;;;;;;8.25;4.22;;;20.50;81.00;;;;;;5052967;28;20033;-69
2023/07/15 04:34:49;;;;;;;5.43;3.78;;;20.50;81.10;;;;;;5061765;28;20029;-69
2023/07/15 04:37:37;;;;;;;5.53;4.03;;;20.60;81.20;;;;;;5062370;28;20099;-69
2023/07/15 04:40:23;;;;;;;5.10;3.78;;;20.70;81.20;;;;;;5057341;28;20051;-69
2023/07/15 04:43:09;;;;;;;7.38;4.60;;;20.70;81.30;;;;;;5037113;28;20064;-70
2023/07/15 04:45:56;;;;;;;5.47;4.13;;;20.80;81.40;;;;;;5037536;28;20032;-70
2023/07/15 04:48:42;;;;;;;5.55;3.70;;;20.80;81.50;;;;;;5033849;28;20044;-70
2023/07/15 04:51:28;;;;;;;6.25;4.00;;;20.90;81.70;;;;;;5051006;28;20470;-71
2023/07/15 04:54:14;;;;;;;6.88;3.72;;;20.90;81.70;;;;;;5051725;28;20513;-70
2023/07/15 04:57:00;;;;;;;5.05;4.20;;;21.00;81.70;;;;;;5054223;28;20460;-70
2023/07/15 04:59:46;;;;;;;4.78;3.58;;;21.00;81.80;;;;;;5045479;28;20413;-70
2023/07/15 05:02:31;;;;;;;6.20;3.83;;;21.10;81.90;;;;;;5045930;28;20032;-70
2023/07/15 05:05:17;;;;;;;7.25;3.90;;;21.10;81.80;;;;;;5054728;28;20044;-70
2023/07/15 05:08:12;;;;;;;5.40;3.83;;;21.10;81.90;;;;;;5055545;28;20033;-70
2023/07/15 05:10:58;;;;;;;6.80;4.23;;;21.20;82.00;;;;;;5049054;28;20269;-70
2023/07/15 05:13:43;;;;;;;10.68;4.63;;;21.20;82.00;;;;;;5062421;28;20287;-72
2023/07/15 05:16:29;;;;;;;6.72;4.47;;;21.30;82.20;;;;;;5050037;28;20040;-70
2023/07/15 05:19:15;;;;;;;5.20;4.70;;;21.30;82.40;;;;;;5047275;28;20098;-70
2023/07/15 05:22:01;;;;;;;5.88;4.40;;;21.40;82.40;;;;;;5040597;28;20069;-71
2023/07/15 05:24:48;;;;;;;5.57;4.45;;;21.40;82.30;;;;;;5049523;28;20041;-71
2023/07/15 05:27:34;;;;;;;8.50;5.28;;;21.50;82.40;;;;;;5088552;28;20036;-69
2023/07/15 05:30:20;;;;;;;6.40;4.60;;;21.50;82.30;;;;;;5054139;28;20036;-69
2023/07/15 05:33:06;;;;;;;5.53;3.70;;;21.60;82.50;;;;;;5054368;28;20032;-70
2023/07/15 05:35:53;;;;;;;5.10;3.92;;;21.70;82.30;;;;;;5051622;28;20157;-70
2023/07/15 05:38:43;;;;;;;7.30;4.38;;;21.70;82.20;;;;;;5050876;28;20048;-70
2023/07/15 05:41:29;;;;;;;7.35;3.67;;;21.80;82.20;;;;;;5034342;28;20056;-70
2023/07/15 05:44:15;;;;;;;6.20;3.58;;;21.90;82.00;;;;;;5047797;28;20033;-70
2023/07/15 05:47:01;;;;;;;12.25;3.63;;;22.00;81.70;;;;;;5048380;28;20039;-69
2023/07/15 05:49:47;;;;;;;5.63;4.05;;;22.00;81.70;;;;;;5054916;28;20686;-70
2023/07/15 05:52:33;;;;;;;7.40;4.35;;;22.10;81.80;;;;;;5050014;28;20102;-71
2023/07/15 05:55:19;;;;;;;4.75;3.25;;;22.20;82.00;;;;;;5049434;28;20505;-70
2023/07/15 05:58:09;;;;;;;4.38;3.00;;;22.20;81.70;;;;;;5056464;28;20033;-70
2023/07/15 06:00:55;;;;;;;5.60;3.88;;;22.30;81.60;;;;;;5054192;28;20032;-70
2023/07/15 06:03:41;;;;;;;6.10;3.75;;;22.40;81.40;;;;;;5058034;28;20494;-71
2023/07/15 06:06:27;;;;;;;4.75;3.45;;;22.50;81.30;;;;;;5053266;28;20051;-70
2023/07/15 06:09:13;;;;;;;4.88;3.45;;;22.50;81.20;;;;;;5060179;28;20115;-70
2023/07/15 06:11:59;;;;;;;7.05;4.55;;;22.60;80.80;;;;;;5072187;28;20043;-71
2023/07/15 06:14:45;;;;;;;6.38;3.88;;;22.60;80.20;;;;;;5063118;28;20025;-84
2023/07/15 06:17:31;;;;;;;8.40;5.65;;;22.70;80.20;;;;;;5059281;28;20492;-83
2023/07/15 06:20:18;;;;;;;9.68;4.65;;;22.80;80.00;;;;;;5067522;28;20436;-83
2023/07/15 06:23:04;;;;;;;7.47;4.15;;;22.80;79.70;;;;;;5074935;28;20112;-83
2023/07/15 06:25:50;;;;;;;5.38;3.50;;;22.90;79.60;;;;;;5057474;28;20051;-84
2023/07/15 06:28:36;;;;;;;4.75;3.25;;;23.00;79.60;;;;;;5053785;28;20036;-80
2023/07/15 06:31:22;;;;;;;5.13;3.40;;;23.00;79.30;;;;;;5054425;28;20441;-81
2023/07/15 06:34:07;;;;;;;8.48;4.03;;;23.20;79.20;;;;;;5056799;28;20064;-81
2023/07/15 06:36:53;;;;;;;5.82;4.25;;;23.20;79.20;;;;;;5071995;28;20067;-81
2023/07/15 06:39:39;;;;;;;4.70;3.42;;;23.30;79.00;;;;;;5052423;28;20051;-82
2023/07/15 06:42:25;;;;;;;4.88;3.13;;;23.40;78.70;;;;;;5039286;28;20101;-81
2023/07/15 06:45:12;;;;;;;5.00;3.47;;;23.50;78.20;;;;;;5049918;28;20107;-80
2023/07/15 06:47:58;;;;;;;4.38;3.10;;;23.60;77.80;;;;;;5067792;28;20033;-82
2023/07/15 06:50:44;;;;;;;7.82;3.85;;;23.60;77.60;;;;;;5069202;28;20025;-84
2023/07/15 06:53:30;;;;;;;5.35;3.17;;;23.70;77.50;;;;;;5070141;28;20115;-85
2023/07/15 06:56:16;;;;;;;7.43;3.88;;;23.80;77.30;;;;;;5037388;28;20028;-81
2023/07/15 06:59:02;;;;;;;4.95;3.33;;;23.90;77.40;;;;;;5052582;28;20101;-86
2023/07/15 07:01:48;;;;;;;4.03;2.97;;;23.90;77.10;;;;;;5038765;28;20029;-86
2023/07/15 07:04:34;;;;;;;7.47;4.70;;;24.00;76.70;;;;;;5045879;28;20050;-85
2023/07/15 07:07:23;;;;;;;6.97;4.10;;;24.10;76.70;;;;;;5039560;28;20107;-86
2023/07/15 07:10:09;;;;;;;5.72;3.97;;;24.20;76.30;;;;;;5039194;28;20037;-86
2023/07/15 07:12:55;;;;;;;6.72;4.18;;;24.30;75.90;;;;;;5037964;28;20037;-82
2023/07/15 07:15:41;;;;;;;4.93;3.17;;;24.40;75.90;;;;;;5053206;28;20106;-83
2023/07/15 07:18:27;;;;;;;7.22;3.40;;;24.50;75.80;;;;;;5053451;28;20382;-71
2023/07/15 07:21:13;;;;;;;5.35;3.38;;;24.60;75.20;;;;;;5057996;28;20075;-71
2023/07/15 07:23:59;;;;;;;6.32;3.83;;;24.60;75.20;;;;;;5052064;28;20036;-71
2023/07/15 07:26:45;;;;;;;4.15;3.03;;;24.70;74.80;;;;;;5055313;28;20029;-70
2023/07/15 07:29:31;;;;;;;6.32;3.00;;;24.80;74.20;;;;;;5051316;28;20037;-70
2023/07/15 07:32:17;;;;;;;5.68;3.35;;;24.90;74.50;;;;;;5056827;28;20489;-67
2023/07/15 07:35:03;;;;;;;6.03;3.17;;;25.00;74.20;;;;;;5057840;28;20397;-71
2023/07/15 07:37:49;;;;;;;5.88;3.50;;;25.10;73.90;;;;;;5050909;28;20048;-71
2023/07/15 07:40:35;;;;;;;3.97;2.53;;;25.30;73.60;;;;;;5056812;28;22172;-71
2023/07/15 07:43:21;;;;;;;6.90;3.65;;;25.30;73.20;;;;;;5058723;28;20033;-73
2023/07/15 07:46:09;;;;;;;4.90;3.05;;;25.40;73.00;;;;;;5046871;28;20545;-71
2023/07/15 07:48:55;;;;;;;5.97;2.97;;;25.50;72.50;;;;;;5057114;28;20166;-73
2023/07/15 07:51:41;;;;;;;7.45;2.95;;;25.60;72.10;;;;;;5051901;28;20095;-69
2023/07/15 07:54:27;;;;;;;4.15;2.50;;;25.70;71.60;;;;;;5054865;28;20479;-70
2023/07/15 07:57:15;;;;;;;5.93;3.30;;;25.80;71.30;;;;;;5064542;28;20028;-69
2023/07/15 08:00:01;;;;;;;7.43;3.33;;;25.90;71.80;;;;;;5060262;28;20044;-70
2023/07/15 08:02:47;;;;;;;4.15;2.58;;;26.00;71.40;;;;;;5050840;28;20032;-68
2023/07/15 08:05:33;;;;;;;3.63;2.65;;;26.10;71.40;;;;;;5053235;28;20532;-72
2023/07/15 08:08:19;;;;;;;4.40;2.55;;;26.20;70.70;;;;;;5050970;28;20466;-72
2023/07/15 08:11:05;;;;;;;7.20;2.58;;;26.30;70.40;;;;;;5052370;28;20383;-68
2023/07/15 08:13:53;;;;;;;4.57;2.30;;;26.40;70.30;;;;;;5051069;28;20458;-68
2023/07/15 08:16:39;;;;;;;5.57;2.85;;;26.40;69.80;;;;;;5049330;28;20037;-70
2023/07/15 08:19:25;;;;;;;5.93;2.58;;;26.50;69.70;;;;;;5056470;28;20048;-71
2023/07/15 08:22:11;;;;;;;4.63;2.67;;;26.70;70.20;;;;;;5052185;28;20028;-70
2023/07/15 08:25:00;;;;;;;4.93;2.78;;;26.80;69.50;;;;;;5052709;28;20041;-70
2023/07/15 08:27:46;;;;;;;3.70;2.67;;;26.90;69.10;;;;;;5041820;28;20040;-71
2023/07/15 08:30:36;;;;;;;3.75;2.40;;;27.00;69.00;;;;;;5050818;28;20041;-71
2023/07/15 08:33:21;;;;;;;5.13;2.80;;;27.10;68.80;;;;;;5050244;28;20040;-71
2023/07/15 08:36:08;;;;;;;4.60;2.63;;;27.20;68.60;;;;;;5057045;28;20068;-71
2023/07/15 08:38:54;;;;;;;5.38;2.53;;;27.30;68.80;;;;;;5053749;28;20044;-71
2023/07/15 08:41:40;;;;;;;6.82;3.20;;;27.40;68.20;;;;;;5048544;28;20087;-71
2023/07/15 08:44:26;;;;;;;4.00;2.70;;;27.50;68.20;;;;;;5050635;28;20072;-70
2023/07/15 08:47:17;;;;;;;7.07;3.40;;;27.60;68.00;;;;;;5050375;28;20037;-70
2023/07/15 08:50:05;;;;;;;4.00;2.70;;;27.70;67.90;;;;;;5049859;28;20115;-70
2023/07/15 08:52:52;;;;;;;8.25;3.03;;;27.80;67.90;;;;;;5057441;28;20028;-71
2023/07/15 08:55:39;;;;;;;5.45;2.55;;;27.90;68.30;;;;;;5055233;28;20036;-69
2023/07/15 08:58:25;;;;;;;3.47;2.33;;;28.00;67.10;;;;;;5050614;28;20047;-70
2023/07/15 09:01:10;;;;;;;4.25;2.42;;;28.20;67.30;;;;;;5058141;28;20402;-69
2023/07/15 09:03:56;;;;;;;4.40;2.40;;;28.20;66.50;;;;;;5047645;28;20060;-69
2023/07/15 09:06:42;;;;;;;2.97;2.20;;;28.30;66.50;;;;;;5049534;28;20051;-69
2023/07/15 09:09:33;;;;;;;2.88;2.05;;;28.50;66.50;;;;;;5053238;28;20362;-69
2023/07/15 09:12:26;;;;;;;5.18;2.25;;;28.60;65.90;;;;;;5049377;28;20115;-69
2023/07/15 09:15:16;;;;;;;9.90;2.25;;;28.70;66.50;;;;;;5048696;28;20032;-68
2023/07/15 09:18:07;;;;;;;3.70;2.55;;;28.80;65.50;;;;;;5049912;28;20044;-69
2023/07/15 09:21:09;;;;;;;3.55;2.28;;;28.80;65.20;;;;;;5056511;28;20159;-70
2023/07/15 09:24:00;;;;;;;5.68;2.28;;;28.90;65.10;;;;;;5050072;28;20044;-68
2023/07/15 09:26:54;;;;;;;2.92;1.90;;;29.00;65.10;;;;;;5048978;28;20470;-69
2023/07/15 09:29:40;;;;;;;8.70;2.83;;;29.00;64.50;;;;;;5048892;28;20084;-69
2023/07/15 09:32:26;;;;;;;3.92;2.13;;;29.20;64.30;;;;;;5034327;28;20025;-69
2023/07/15 09:35:14;;;;;;;3.85;2.30;;;29.30;64.30;;;;;;5048994;28;20075;-70
2023/07/15 09:38:00;;;;;;;3.45;2.00;;;29.40;63.60;;;;;;5058155;28;20521;-69
2023/07/15 09:40:46;;;;;;;5.75;2.13;;;29.50;64.00;;;;;;5052661;28;20025;-68
2023/07/15 09:43:51;;;;;;;6.30;2.20;;;29.60;63.60;;;;;;5065019;28;20651;-69
2023/07/15 09:46:39;;;;;;;2.58;1.58;;;29.80;63.70;;;;;;5048967;28;20045;-68
2023/07/15 09:49:25;;;;;;;5.22;2.22;;;29.80;63.30;;;;;;5047669;28;20032;-69
2023/07/15 09:52:13;;;;;;;2.70;1.98;;;29.90;63.20;;;;;;5050420;28;20044;-69
2023/07/15 09:55:00;;;;;;;3.60;2.03;;;30.10;63.20;;;;;;5047776;28;20040;-68
2023/07/15 09:57:53;;;;;;;6.05;2.13;;;30.20;62.90;;;;;;5062145;28;20032;-68
2023/07/15 10:00:45;;;;;;;3.28;2.03;;;30.30;62.80;;;;;;5051261;28;20087;-69
2023/07/15 10:03:42;;;;;;;4.15;2.10;;;30.40;62.50;;;;;;5053190;28;20103;-68
2023/07/15 10:06:30;;;;;;;3.25;2.00;;;30.50;62.10;;;;;;5056494;28;20027;-69
2023/07/15 10:09:17;;;;;;;3.47;2.35;;;30.60;62.00;;;;;;5049831;28;20041;-69
2023/07/15 10:12:05;;;;;;;9.48;2.95;;;30.70;62.00;;;;;;5050265;28;20067;-70
2023/07/15 10:14:51;;;;;;;3.95;2.42;;;30.80;62.10;;;;;;5050604;28;20124;-68
2023/07/15 10:17:37;;;;;;;6.78;2.70;;;30.80;61.40;;;;;;5047045;28;20029;-66
2023/07/15 10:20:31;;;;;;;3.00;2.30;;;30.90;61.50;;;;;;5050331;28;20048;-70
2023/07/15 10:23:24;;;;;;;10.55;2.25;;;30.90;61.60;;;;;;5051418;28;20065;-70
2023/07/15 10:26:10;;;;;;;5.45;2.05;;;31.00;61.10;;;;;;5047974;28;20086;-69
2023/07/15 10:28:58;;;;;;;8.93;2.60;;;31.00;61.10;;;;;;5048022;28;20115;-69
2023/07/15 10:32:06;;;;;;;2.53;1.83;;;31.10;61.10;;;;;;5048637;28;20531;-70
2023/07/15 10:34:52;;;;;;;3.78;2.28;;;31.20;61.30;;;;;;5061468;28;20025;-70
2023/07/15 10:37:38;;;;;;;4.40;2.08;;;31.30;60.70;;;;;;5048346;28;20493;-68
2023/07/15 10:40:46;;;;;;;6.30;2.97;;;31.40;60.20;;;;;;5057297;28;20102;-71
2023/07/15 10:43:35;;;;;;;4.45;2.50;;;31.40;60.10;;;;;;5046374;28;20040;-71
2023/07/15 10:46:21;;;;;;;4.95;2.05;;;31.50;60.30;;;;;;5050857;28;20037;-70
2023/07/15 10:49:07;;;;;;;3.45;2.10;;;31.60;59.30;;;;;;5060263;28;20043;-71
2023/07/15 10:51:54;;;;;;;3.63;2.08;;;31.60;58.20;;;;;;5058686;28;20040;-70
2023/07/15 10:54:40;;;;;;;3.10;1.70;;;31.60;57.10;;;;;;5054307;28;20079;-71
2023/07/15 10:57:27;;;;;;;3.50;1.98;;;31.70;57.30;;;;;;5050645;28;20033;-71
2023/07/15 11:00:13;;;;;;;3.90;1.90;;;31.80;57.40;;;;;;5058794;28;20051;-70
2023/07/15 11:02:59;;;;;;;3.45;2.10;;;31.90;57.20;;;;;;5053936;28;20029;-71
2023/07/15 11:05:45;;;;;;;4.05;1.83;;;31.90;56.60;;;;;;5056364;28;20442;-71
2023/07/15 11:08:32;;;;;;;2.88;1.85;;;31.90;56.50;;;;;;5061628;28;20025;-71
2023/07/15 11:11:18;;;;;;;4.35;2.28;;;32.00;56.30;;;;;;5049647;28;20037;-71
2023/07/15 11:14:04;;;;;;;3.53;1.83;;;32.10;56.70;;;;;;5040274;28;20086;-70
2023/07/15 11:17:01;;;;;;;2.63;1.92;;;32.10;56.70;;;;;;5065689;28;20036;-66
2023/07/15 11:19:47;;;;;;;3.45;2.45;;;32.10;56.80;;;;;;5044776;28;20047;-67
2023/07/15 11:22:33;;;;;;;3.30;2.00;;;32.20;56.60;;;;;;5062348;28;20436;-66
2023/07/15 11:25:20;;;;;;;3.58;2.08;;;32.30;56.90;;;;;;5053853;28;20041;-68
2023/07/15 11:28:06;;;;;;;3.10;1.83;;;32.20;57.00;;;;;;5067830;28;20047;-66
2023/07/15 11:30:52;;;;;;;2.13;1.63;;;32.30;56.90;;;;;;5050460;28;20120;-67
2023/07/15 11:33:38;;;;;;;2.03;1.58;;;32.30;55.80;;;;;;5054836;28;20033;-67
2023/07/15 11:36:24;;;;;;;3.95;2.33;;;32.30;55.50;;;;;;5050130;28;20057;-67
2023/07/15 11:39:11;;;;;;;3.50;2.03;;;32.40;55.10;;;;;;5062211;28;20350;-66
2023/07/15 11:41:57;;;;;;;2.75;1.90;;;32.40;54.50;;;;;;5050637;28;20046;-66
2023/07/15 11:44:44;;;;;;;2.25;1.63;;;32.40;54.40;;;;;;5051967;28;20048;-66
2023/07/15 11:47:34;;;;;;;2.42;1.73;;;32.50;53.60;;;;;;5063737;28;20477;-66
2023/07/15 11:50:26;;;;;;;2.20;1.80;;;32.50;53.40;;;;;;5052752;28;20039;-66
2023/07/15 11:53:31;;;;;;;2.33;1.58;;;32.50;52.70;;;;;;5049301;28;20041;-66
2023/07/15 11:56:34;;;;;;;2.65;1.70;;;32.50;53.00;;;;;;5050718;28;20076;-66
2023/07/15 11:59:29;;;;;;;4.35;2.00;;;32.50;52.90;;;;;;5055901;28;20141;-66
2023/07/15 12:02:15;;;;;;;3.42;1.63;;;32.60;52.40;;;;;;5068838;28;20095;-67
2023/07/15 12:05:01;;;;;;;3.20;2.33;;;32.60;52.40;;;;;;5050345;28;20068;-66
2023/07/15 12:07:51;;;;;;;4.28;1.63;;;32.60;52.30;;;;;;5052555;28;20058;-66
2023/07/15 12:10:49;;;;;;;3.45;2.00;;;32.60;52.20;;;;;;5056735;28;20433;-66
2023/07/15 12:13:35;;;;;;;4.53;1.60;;;32.70;52.40;;;;;;5051933;28;20040;-67
2023/07/15 12:16:22;;;;;;;2.90;1.60;;;32.80;52.20;;;;;;5045929;28;20044;-66
2023/07/15 12:19:10;;;;;;;2.97;1.88;;;32.80;51.40;;;;;;5050608;28;20478;-66
2023/07/15 12:21:56;;;;;;;4.30;2.08;;;32.90;51.50;;;;;;5049828;28;20037;-66
2023/07/15 12:24:42;;;;;;;2.45;1.70;;;33.00;51.10;;;;;;5035711;28;20040;-67
2023/07/15 12:27:30;;;;;;;3.53;1.48;;;33.00;50.80;;;;;;5049549;28;20103;-67
2023/07/15 12:30:16;;;;;;;2.92;1.73;;;33.10;50.60;;;;;;5053962;28;20036;-66
2023/07/15 12:33:02;;;;;;;2.92;1.60;;;33.20;50.10;;;;;;5049109;28;20033;-66
2023/07/15 12:35:48;;;;;;;1.58;1.42;;;33.30;50.50;;;;;;5054205;28;20046;-67
2023/07/15 12:38:34;;;;;;;4.15;1.75;;;33.40;50.40;;;;;;5055124;28;20068;-66
2023/07/15 12:41:26;;;;;;;2.92;1.67;;;33.50;50.40;;;;;;5051463;28;20044;-67
2023/07/15 12:44:12;;;;;;;2.95;2.03;;;33.60;50.10;;;;;;5049021;28;20116;-67
2023/07/15 12:46:58;;;;;;;2.92;1.65;;;33.70;50.20;;;;;;5050000;28;20033;-66
2023/07/15 12:49:44;;;;;;;3.60;1.55;;;33.70;49.40;;;;;;5053590;28;20119;-66
2023/07/15 12:52:30;;;;;;;2.55;1.52;;;33.80;49.00;;;;;;5049262;28;20045;-67
2023/07/15 12:55:16;;;;;;;1.65;1.20;;;33.90;48.20;;;;;;5049493;28;20037;-66
2023/07/15 12:58:02;;;;;;;3.53;1.50;;;34.00;48.90;;;;;;5050506;28;20124;-66
2023/07/15 13:00:49;;;;;;;4.13;1.65;;;34.10;48.90;;;;;;5051220;28;20045;-66
2023/07/15 13:03:35;;;;;;;2.35;1.42;;;34.20;49.10;;;;;;5049703;28;20037;-66
2023/07/15 13:06:21;;;;;;;2.10;1.65;;;34.20;49.00;;;;;;5048300;28;20040;-66
2023/07/15 13:09:07;;;;;;;3.88;1.60;;;34.40;48.50;;;;;;5048200;28;20052;-66
2023/07/15 13:11:53;;;;;;;4.70;2.00;;;34.50;48.50;;;;;;5053256;28;20036;-67
2023/07/15 13:14:39;;;;;;;2.08;1.48;;;34.60;48.70;;;;;;5053327;28;20036;-66
2023/07/15 13:17:25;;;;;;;2.58;1.50;;;34.80;48.00;;;;;;5047682;28;20032;-66
2023/07/15 13:20:12;;;;;;;2.50;1.73;;;34.90;48.20;;;;;;5048329;28;20037;-67
2023/07/15 13:22:58;;;;;;;1.95;1.45;;;35.00;47.80;;;;;;5048879;28;20087;-66
2023/07/15 13:25:44;;;;;;;1.70;1.30;;;35.10;48.20;;;;;;5047891;28;20041;-67
2023/07/15 13:28:30;;;;;;;1.98;1.63;;;35.30;47.80;;;;;;5053856;28;20486;-66
2023/07/15 13:31:16;;;;;;;5.30;1.55;;;35.40;47.60;;;;;;5061116;28;20497;-67
2023/07/15 13:34:02;;;;;;;2.08;1.50;;;35.50;47.60;;;;;;5047877;28;20033;-66
2023/07/15 13:36:48;;;;;;;3.28;1.30;;;35.60;47.50;;;;;;5051171;28;20052;-67
2023/07/15 13:39:42;;;;;;;3.38;1.77;;;35.70;47.20;;;;;;5051080;28;20033;-68
2023/07/15 13:42:29;;;;;;;1.83;1.52;;;35.80;46.40;;;;;;5051909;28;20031;-66
2023/07/15 13:45:15;;;;;;;7.45;1.73;;;35.70;45.90;;;;;;5052383;28;20052;-66
2023/07/15 13:48:01;;;;;;;2.53;1.42;;;35.60;45.90;;;;;;5046946;28;20028;-66
2023/07/15 13:50:47;;;;;;;5.40;2.33;;;35.50;45.70;;;;;;5048196;28;20036;-66
2023/07/15 13:53:33;;;;;;;3.03;1.92;;;35.40;45.80;;;;;;5045134;28;20048;-66
2023/07/15 13:56:19;;;;;;;3.10;1.83;;;35.40;45.60;;;;;;5058262;28;20044;-67
2023/07/15 13:59:05;;;;;;;2.30;1.48;;;35.40;46.30;;;;;;5055967;28;20486;-67
2023/07/15 14:01:51;;;;;;;2.25;1.63;;;35.40;45.90;;;;;;5059223;28;20032;-67
2023/07/15 14:04:37;;;;;;;4.25;1.80;;;35.30;45.60;;;;;;5046165;28;20036;-67
2023/07/15 14:07:23;;;;;;;3.00;1.92;;;35.20;45.50;;;;;;5047836;28;20155;-67
2023/07/15 14:10:09;;;;;;;1.95;1.48;;;35.10;45.40;;;;;;5048074;28;20033;-67
2023/07/15 14:12:55;;;;;;;2.33;1.50;;;35.00;45.50;;;;;;5063509;28;20083;-67
2023/07/15 14:15:41;;;;;;;3.22;1.60;;;35.00;45.80;;;;;;5049680;28;20045;-67
2023/07/15 14:18:27;;;;;;;2.53;1.77;;;34.90;46.20;;;;;;5050713;28;20073;-67
2023/07/15 14:21:13;;;;;;;7.93;1.95;;;34.90;45.80;;;;;;5053134;28;20040;-68
2023/07/15 14:24:03;;;;;;;3.03;1.67;;;34.80;46.00;;;;;;5052152;28;20037;-66
2023/07/15 14:26:49;;;;;;;4.32;2.35;;;34.80;45.80;;;;;;5048306;28;20033;-66
2023/07/15 14:29:35;;;;;;;3.50;1.80;;;34.70;45.80;;;;;;5052024;28;20119;-66